CheckWX is a tool to help pilots better visualize weather data.  It is not intended as a substitute for an official pre-flight weather briefing.

20:31:25 UTC

CYOY METAR
C J.H.L.(Joe) Lecomte) Heliport
Valcartier, Canada
Current

31 mins ago

CYOY 232000Z 08010G15KT 15SM BKN039 BKN150 09/00 A2994 RMK SC6AC2 DA-29FT SLP147
Observed
Apr-23 @ 20:00 UTC
Wind
  • 080° at 10 KTS
  • Gusting to 15 KTS
Visibility
15 SM
Flight Rules
VFR
Cloud Levels
  • Broken at 3,900' AGL
  • Broken at 15,000' AGL
Temperature
C / 48°F
Dewpoint
C / 32°F
Humidity
54%
Altimeter
29.94" Hg
Pressure
1013.92 hPa
Previous

2 hours ago

CYOY 231900Z 11015KT 050V130 15SM BKN040 BKN150 BKN250 09/M00 A2997 RMK SC5AC1CI2 DA-6FT SLP155
Observed
Apr-23 @ 19:00 UTC
Wind
  • 110° at 15 KTS
Visibility
15 SM
Flight Rules
VFR
Cloud Levels
  • Broken at 4,000' AGL
  • Broken at 15,000' AGL
  • Broken at 25,000' AGL
Temperature
C / 48°F
Dewpoint
C / 32°F
Humidity
54%
Altimeter
29.97" Hg
Pressure
1014.92 hPa
Previous

3 hours ago

CYOY 231800Z 09010G20KT 15SM SCT045 BKN150 09/M01 A3001 RMK SC4AC3 DA-117FT SLP169
Observed
Apr-23 @ 18:00 UTC
Wind
  • 090° at 10 KTS
  • Gusting to 20 KTS
Visibility
15 SM
Flight Rules
VFR
Cloud Levels
  • Scattered at 4,500' AGL
  • Broken at 15,000' AGL
Temperature
C / 48°F
Dewpoint
-1°C / 30°F
Humidity
50%
Altimeter
30.01" Hg
Pressure
1016.22 hPa